General Aviation Weather

Text Reports

Enter one or more of the following location identifiers separated by a space:

Zip Code, Four-Character ICAO or Three-Character IATA airport codes.

METAR - Aviation Routine Weather Report
EFKE - Kemi,
Updated at 7:50 PM GMT on July 06, 2015 (10:50 PM EEST):
METAR EFKE 061950Z 12006KT CAVOK 14/07 Q1006
TAF - Terminal Area Forecast
EFKE - Kemi,
Updated at 7:50 PM GMT on July 06, 2015 (10:50 PM EEST):
TAF EFKE 061724Z 0618/0621 16010KT CAVOK=
Decoded:
ID: EFKE   Kemi, FI
REPORT TIME:  5 20:40
INITIAL WX
   WEATHER: NIL
   COMMENTS: = 

PIREP - Pilot Weather Report
EFKE - Kemi,
Updated at 7:50 PM GMT on July 06, 2015 (10:50 PM EEST):
No PIREP is currently available for this location.
AIRMET - Airmens Meteorological Information
EFKE - Kemi,
Updated at 7:50 PM GMT on July 06, 2015 (10:50 PM EEST):
No AIRMET is currently available for this location.
SIGMET - Significant Meteorological Information
EFKE - Kemi,
Updated at 7:50 PM GMT on July 06, 2015 (10:50 PM EEST):
No SIGMET is currently available for this location.
NOTAM - Notice to Airmen
EFKE - Kemi,
Updated at 7:50 PM GMT on July 06, 2015 (10:50 PM EEST):
No NOTAM is currently available for this location.
Forecast Area
EFKE - Kemi,
Updated at 7:50 PM GMT on July 06, 2015 (10:50 PM EEST):
No NOTAM is currently available for this location.
Aviation Weather Maps